Time;durP1;ratioP1;P1;durP2;ratioP2;P2;SDS_P1;SDS_P2;PMS_P1;PMS_P2;Temp;Humidity;BMP_temperature;BMP_pressure;BME280_temperature;BME280_humidity;BME280_pressure;Samples;Min_cycle;Max_cycle;Signal;HPM_P1;HPM_P2
2023/05/08 00:01:18;;;;;;;0.20;0.20;;;;;;;22.51;51.67;102163.38;5055119;28;20060;-70
2023/05/08 00:03:43;;;;;;;0.20;0.20;;;;;;;22.77;51.24;102156.03;5037508;28;20028;-70
2023/05/08 00:06:08;;;;;;;0.30;0.30;;;;;;;22.42;52.23;102165.88;5035368;28;20033;-67
2023/05/08 00:08:34;;;;;;;0.20;0.20;;;;;;;22.58;51.56;102162.06;5051511;28;20428;-71
2023/05/08 00:10:59;;;;;;;0.20;0.20;;;;;;;21.93;52.82;102161.06;5055169;28;20079;-70
2023/05/08 00:13:25;;;;;;;0.20;0.20;;;;;;;22.21;52.52;102157.88;5054667;28;20025;-70
2023/05/08 00:15:50;;;;;;;0.20;0.20;;;;;;;22.18;52.44;102153.75;5054959;28;20033;-68
2023/05/08 00:18:15;;;;;;;0.10;0.10;;;;;;;21.77;52.75;102154.69;5055160;28;20029;-70
2023/05/08 00:20:41;;;;;;;0.17;0.17;;;;;;;22.01;52.54;102155.91;5055296;28;20021;-68
2023/05/08 00:23:07;;;;;;;0.20;0.20;;;;;;;21.99;52.39;102155.34;5055237;28;20029;-69
2023/05/08 00:25:32;;;;;;;0.20;0.20;;;;;;;22.21;51.46;102149.66;5055240;28;20029;-70
2023/05/08 00:27:59;;;;;;;0.20;0.20;;;;;;;22.44;51.35;102152.72;5054780;28;20529;-69
2023/05/08 00:30:25;;;;;;;0.20;0.20;;;;;;;22.08;52.02;102151.00;5054878;28;20624;-70
2023/05/08 00:32:50;;;;;;;0.20;0.20;;;;;;;22.14;51.49;102147.19;5055155;28;20044;-71
2023/05/08 00:35:16;;;;;;;0.20;0.20;;;;;;;22.04;52.54;102147.16;5055199;28;20021;-67
2023/05/08 00:37:42;;;;;;;0.30;0.30;;;;;;;21.46;53.26;102147.44;5054319;28;20044;-70
2023/05/08 00:40:09;;;;;;;0.60;0.60;;;;;;;21.69;53.03;102145.09;5054816;28;20151;-70
2023/05/08 00:42:35;;;;;;;0.68;0.68;;;;;;;21.74;52.22;102145.09;5054690;28;20416;-68
2023/05/08 00:45:00;;;;;;;0.50;0.50;;;;;;;21.59;52.25;102146.94;5054363;28;20029;-69
2023/05/08 00:47:26;;;;;;;0.40;0.40;;;;;;;21.55;52.92;102152.13;5055276;28;20384;-69
2023/05/08 00:49:52;;;;;;;0.50;0.50;;;;;;;21.29;53.30;102152.25;5054837;28;20029;-68
2023/05/08 00:52:18;;;;;;;0.40;0.40;;;;;;;21.14;53.66;102147.50;5054521;28;20060;-69
2023/05/08 00:54:45;;;;;;;0.30;0.30;;;;;;;21.45;53.34;102143.03;5054920;28;20085;-70
2023/05/08 00:57:11;;;;;;;0.32;0.32;;;;;;;21.14;53.87;102138.47;5054247;28;20568;-69
2023/05/08 00:59:40;;;;;;;0.38;0.38;;;;;;;21.42;53.80;102154.53;5054319;28;20039;-68
2023/05/08 01:02:06;;;;;;;0.30;0.30;;;;;;;21.17;53.84;102152.44;5057834;28;20144;-70
2023/05/08 01:04:33;;;;;;;0.28;0.28;;;;;;;20.95;54.26;102152.53;5060868;28;20083;-70
2023/05/08 01:07:00;;;;;;;0.40;0.40;;;;;;;21.28;53.34;102153.34;5054153;28;20048;-68
2023/05/08 01:09:26;;;;;;;0.40;0.40;;;;;;;21.11;54.04;102156.22;5054087;28;20550;-69
2023/05/08 01:12:04;;;;;;;0.30;0.30;;;;;;;21.29;53.52;102153.06;5054023;28;20028;-69
2023/05/08 01:14:57;;;;;;;0.45;0.45;;;;;;;20.84;55.29;102153.56;5054642;28;20028;-69
2023/05/08 01:17:37;;;;;;;0.52;0.52;;;;;;;20.91;54.94;102154.13;5054383;28;20041;-69
2023/05/08 01:20:32;;;;;;;0.50;0.50;;;;;;;21.27;53.60;102152.50;5053717;28;20037;-69
2023/05/08 01:23:16;;;;;;;0.45;0.45;;;;;;;20.94;54.34;102145.44;4972571;28;20074;-70
2023/05/08 01:26:06;;;;;;;0.30;0.30;;;;;;;21.03;54.23;102145.78;4973799;28;20082;-69
2023/05/08 01:28:32;;;;;;;0.30;0.30;;;;;;;20.58;55.53;102145.41;4991881;28;20038;-70
2023/05/08 01:31:01;;;;;;;0.50;0.50;;;;;;;21.07;53.70;102146.91;4991452;28;20141;-68
2023/05/08 01:33:44;;;;;;;0.40;0.40;;;;;;;21.05;53.91;102138.16;4991938;28;20390;-69
2023/05/08 01:36:32;;;;;;;0.60;0.60;;;;;;;21.10;53.92;102148.31;4991797;28;20042;-69
2023/05/08 01:39:16;;;;;;;0.50;0.50;;;;;;;20.98;53.76;102145.72;4991709;28;20038;-71
2023/05/08 01:41:49;;;;;;;0.35;0.35;;;;;;;20.94;53.56;102141.88;4991903;28;20049;-71
2023/05/08 01:44:17;;;;;;;0.15;0.15;;;;;;;20.92;54.58;102141.31;4991709;28;20044;-68
2023/05/08 01:46:46;;;;;;;0.20;0.20;;;;;;;21.12;52.90;102157.88;4972299;28;20034;-69
2023/05/08 01:49:22;;;;;;;0.37;0.37;;;;;;;20.88;54.42;102153.84;4972076;28;20078;-69
2023/05/08 01:51:56;;;;;;;0.30;0.30;;;;;;;20.69;54.47;102150.72;4983478;28;20511;-69
2023/05/08 01:54:27;;;;;;;0.30;0.30;;;;;;;20.43;55.65;102154.28;4991607;28;20030;-70
2023/05/08 01:56:55;;;;;;;0.40;0.40;;;;;;;20.10;56.42;102155.28;4971990;28;20048;-70
2023/05/08 01:59:23;;;;;;;0.30;0.30;;;;;;;20.46;54.92;102152.94;5002955;28;20064;-70
2023/05/08 02:01:52;;;;;;;0.40;0.40;;;;;;;20.37;55.40;102155.31;5054203;28;20102;-70
2023/05/08 02:04:19;;;;;;;0.30;0.30;;;;;;;20.46;55.12;102161.16;5071454;28;20037;-69
2023/05/08 02:06:45;;;;;;;0.30;0.30;;;;;;;20.42;54.81;102157.28;5073020;28;20068;-69
2023/05/08 02:09:11;;;;;;;0.30;0.30;;;;;;;20.63;54.16;102159.94;5053193;28;20045;-68
2023/05/08 02:11:39;;;;;;;0.40;0.40;;;;;;;20.44;54.82;102160.56;5051799;28;20360;-68
2023/05/08 02:14:07;;;;;;;0.30;0.30;;;;;;;20.52;54.26;102163.66;5041506;28;20037;-70
2023/05/08 02:16:33;;;;;;;0.38;0.38;;;;;;;20.62;54.15;102162.91;5052936;28;20116;-69
2023/05/08 02:19:00;;;;;;;0.30;0.30;;;;;;;20.52;54.42;102166.38;5052292;28;20083;-69
2023/05/08 02:21:27;;;;;;;0.40;0.40;;;;;;;20.69;53.73;102167.09;5053138;28;20036;-69
2023/05/08 02:23:55;;;;;;;0.40;0.40;;;;;;;20.37;54.52;102163.50;5053496;28;20369;-70
2023/05/08 02:26:22;;;;;;;0.50;0.50;;;;;;;20.41;54.52;102161.06;5048276;28;20121;-69
2023/05/08 02:28:51;;;;;;;0.30;0.30;;;;;;;20.61;54.25;102164.84;5052402;28;20127;-69
2023/05/08 02:31:18;;;;;;;0.30;0.30;;;;;;;20.51;54.48;102178.41;5051975;28;20041;-71
2023/05/08 02:33:44;;;;;;;0.30;0.30;;;;;;;20.22;55.27;102166.09;5052345;28;20035;-70
2023/05/08 02:36:12;;;;;;;0.30;0.30;;;;;;;20.12;55.19;102164.03;5057772;28;20048;-68
2023/05/08 02:38:41;;;;;;;0.65;0.65;;;;;;;20.39;54.84;102155.03;5042799;28;20055;-69
2023/05/08 02:41:08;;;;;;;0.45;0.45;;;;;;;20.41;54.51;102156.44;5032236;28;20038;-68
2023/05/08 02:43:34;;;;;;;0.50;0.50;;;;;;;20.27;55.04;102162.56;5032313;28;20034;-68
2023/05/08 02:46:14;;;;;;;0.50;0.50;;;;;;;20.31;54.75;102171.88;5046193;28;20485;-68
2023/05/08 02:48:53;;;;;;;0.38;0.38;;;;;;;20.47;54.62;102171.81;5051793;28;20032;-68
2023/05/08 02:51:54;;;;;;;0.40;0.40;;;;;;;20.51;54.01;102166.63;5052087;28;20041;-70
2023/05/08 02:54:42;;;;;;;0.30;0.30;;;;;;;20.63;53.80;102162.66;5052656;28;20025;-69
2023/05/08 02:57:25;;;;;;;0.50;0.50;;;;;;;19.79;55.83;102166.91;5041350;28;20029;-69
2023/05/08 03:00:01;;;;;;;0.47;0.47;;;;;;;20.02;55.68;102158.47;5032839;28;20021;-68
2023/05/08 03:03:31;;;;;;;0.40;0.40;;;;;;;20.48;54.45;102164.44;5046769;28;20119;-68
2023/05/08 03:06:01;;;;;;;0.40;0.40;;;;;;;20.31;54.81;102159.06;4913510;29;20086;-69
2023/05/08 03:08:31;;;;;;;0.45;0.45;;;;;;;20.21;54.54;102166.31;4900873;29;20048;-69
2023/05/08 03:11:01;;;;;;;0.45;0.45;;;;;;;20.23;54.99;102178.66;4894182;29;20049;-68
2023/05/08 03:13:30;;;;;;;0.35;0.35;;;;;;;20.01;54.50;102175.06;4894152;29;20144;-69
2023/05/08 03:16:00;;;;;;;0.30;0.30;;;;;;;20.08;55.71;102167.53;4894138;29;20382;-68
2023/05/08 03:18:35;;;;;;;1.67;1.60;;;;;;;20.30;54.34;102162.91;4894422;29;20037;-68
2023/05/08 03:21:01;;;;;;;0.38;0.38;;;;;;;19.94;55.46;102166.28;4894630;29;20051;-69
2023/05/08 03:23:29;;;;;;;0.50;0.50;;;;;;;20.15;54.24;102168.16;4894658;29;20063;-70
2023/05/08 03:25:57;;;;;;;0.40;0.40;;;;;;;20.19;54.13;102176.66;4881828;29;20040;-69
2023/05/08 03:28:23;;;;;;;0.40;0.40;;;;;;;20.07;54.80;102180.34;4912937;29;20390;-67
2023/05/08 03:30:50;;;;;;;0.40;0.40;;;;;;;20.07;54.57;102179.50;4912284;29;20063;-68
2023/05/08 03:33:16;;;;;;;0.45;0.45;;;;;;;19.93;55.12;102172.81;4913232;29;20040;-69
2023/05/08 03:35:43;;;;;;;0.30;0.30;;;;;;;20.04;54.48;102175.41;4913502;29;20044;-68
2023/05/08 03:38:09;;;;;;;0.20;0.20;;;;;;;19.97;54.99;102171.22;4902340;29;20126;-68
2023/05/08 03:40:37;;;;;;;0.20;0.20;;;;;;;19.81;55.32;102172.13;4967361;28;20109;-69
2023/05/08 03:43:06;;;;;;;0.20;0.20;;;;;;;20.09;54.58;102171.91;5033560;28;20469;-68
2023/05/08 03:45:36;;;;;;;0.20;0.20;;;;;;;20.11;54.57;102170.56;5050925;28;20052;-69
2023/05/08 03:48:04;;;;;;;0.20;0.20;;;;;;;19.95;54.34;102165.22;5051170;28;20031;-70
2023/05/08 03:50:30;;;;;;;0.20;0.20;;;;;;;19.91;54.92;102164.06;5051780;28;20055;-68
2023/05/08 03:52:57;;;;;;;0.22;0.22;;;;;;;19.63;55.72;102164.25;5051312;28;20037;-68
2023/05/08 03:55:23;;;;;;;0.30;0.30;;;;;;;19.86;55.93;102158.53;5051271;28;20047;-69
2023/05/08 03:57:52;;;;;;;0.40;0.40;;;;;;;19.94;54.91;102153.47;5051218;28;20478;-68
2023/05/08 04:00:43;;;;;;;0.25;0.25;;;;;;;20.04;54.47;102153.59;5051162;28;20541;-68
2023/05/08 04:03:26;;;;;;;0.28;0.28;;;;;;;20.06;54.17;102156.88;5051647;28;20029;-70
2023/05/08 04:06:30;;;;;;;0.32;0.32;;;;;;;20.02;54.20;102158.47;5051257;28;20060;-71
2023/05/08 04:09:23;;;;;;;0.30;0.30;;;;;;;19.94;54.77;102145.28;4968913;28;20050;-70
2023/05/08 04:12:02;;;;;;;0.20;0.20;;;;;;;19.84;54.62;102157.97;4970054;28;20035;-68
2023/05/08 04:14:34;;;;;;;0.35;0.35;;;;;;;19.76;54.77;102145.59;4969432;28;20050;-72
2023/05/08 04:17:05;;;;;;;0.30;0.30;;;;;;;19.64;55.71;102139.44;4969764;28;20034;-68
2023/05/08 04:19:35;;;;;;;0.20;0.20;;;;;;;19.78;55.00;102153.53;4969955;28;20043;-70
2023/05/08 04:22:05;;;;;;;0.28;0.28;;;;;;;19.91;54.87;102155.88;4970205;28;20035;-69
2023/05/08 04:24:32;;;;;;;0.20;0.20;;;;;;;19.76;54.44;102145.59;4986119;28;20134;-69
2023/05/08 04:26:59;;;;;;;0.40;0.40;;;;;;;19.70;55.16;102149.34;4989814;28;20100;-69
2023/05/08 04:29:24;;;;;;;0.25;0.25;;;;;;;19.68;55.15;102153.38;4981794;28;20577;-69
2023/05/08 04:32:09;;;;;;;0.40;0.40;;;;;;;19.75;55.03;102149.38;4969749;28;20133;-70
2023/05/08 04:34:35;;;;;;;0.25;0.25;;;;;;;19.85;54.81;102156.91;4970006;28;20542;-68
2023/05/08 04:37:01;;;;;;;0.32;0.32;;;;;;;19.78;54.80;102156.25;4975075;28;20039;-70
2023/05/08 04:39:26;;;;;;;0.35;0.35;;;;;;;19.75;55.32;102152.13;4969441;28;20601;-70
2023/05/08 04:41:54;;;;;;;0.30;0.30;;;;;;;19.97;54.64;102154.84;4972361;28;20062;-70
2023/05/08 04:44:19;;;;;;;0.20;0.20;;;;;;;19.78;54.64;102157.09;4975132;28;20122;-68
2023/05/08 04:46:44;;;;;;;0.30;0.30;;;;;;;19.66;55.32;102156.38;5049474;28;20416;-69
2023/05/08 04:49:10;;;;;;;0.40;0.40;;;;;;;19.80;54.92;102160.38;5051969;28;20036;-70
2023/05/08 04:51:36;;;;;;;0.40;0.40;;;;;;;19.61;54.31;102172.69;5054077;28;20032;-69
2023/05/08 04:54:01;;;;;;;0.20;0.20;;;;;;;19.50;55.14;102172.81;5054345;28;20029;-68
2023/05/08 04:56:26;;;;;;;0.30;0.30;;;;;;;19.84;54.37;102174.34;5054444;28;20354;-69
2023/05/08 04:58:52;;;;;;;0.30;0.30;;;;;;;19.82;54.65;102179.22;5053827;28;20119;-68
2023/05/08 05:01:17;;;;;;;0.40;0.40;;;;;;;20.12;54.29;102182.31;5043147;28;20050;-69
2023/05/08 05:03:43;;;;;;;0.40;0.40;;;;;;;20.12;53.79;102188.63;5015598;28;20082;-69
2023/05/08 05:06:08;;;;;;;0.40;0.40;;;;;;;20.05;53.96;102184.41;5033156;28;20029;-69
2023/05/08 05:08:33;;;;;;;0.40;0.40;;;;;;;20.20;53.63;102187.34;5034066;28;20354;-68
2023/05/08 05:10:59;;;;;;;0.30;0.30;;;;;;;20.06;54.22;102186.91;5033891;28;20033;-68
2023/05/08 05:13:24;;;;;;;0.40;0.40;;;;;;;19.46;55.42;102188.81;5034382;28;20504;-69
2023/05/08 05:15:53;;;;;;;0.40;0.40;;;;;;;19.62;55.41;102184.41;5033785;28;20045;-68
2023/05/08 05:18:19;;;;;;;0.40;0.40;;;;;;;19.45;56.35;102183.63;5034441;28;20026;-69
2023/05/08 05:20:44;;;;;;;0.22;0.22;;;;;;;19.89;54.63;102186.13;5034480;28;20069;-69
2023/05/08 05:23:10;;;;;;;0.30;0.30;;;;;;;19.99;54.51;102183.53;5033688;28;20068;-69
2023/05/08 05:25:36;;;;;;;0.30;0.30;;;;;;;19.73;55.54;102181.59;5033262;28;20033;-68
2023/05/08 05:28:01;;;;;;;0.30;0.30;;;;;;;19.71;55.25;102181.00;5041894;28;20071;-69
2023/05/08 05:30:27;;;;;;;0.40;0.40;;;;;;;19.65;55.60;102186.63;5053242;28;20055;-68
2023/05/08 05:32:52;;;;;;;0.30;0.30;;;;;;;19.68;55.43;102186.13;5053645;28;20029;-70
2023/05/08 05:35:17;;;;;;;0.30;0.30;;;;;;;19.55;55.75;102191.97;5033801;28;20033;-69
2023/05/08 05:37:43;;;;;;;0.38;0.38;;;;;;;19.59;55.65;102201.28;5032655;28;20034;-69
2023/05/08 05:40:09;;;;;;;0.30;0.30;;;;;;;20.04;54.44;102204.59;5032591;28;20093;-70
2023/05/08 05:42:34;;;;;;;0.30;0.30;;;;;;;19.74;55.18;102201.47;5032090;28;20059;-69
2023/05/08 05:45:00;;;;;;;0.28;0.28;;;;;;;19.83;55.34;102206.25;5032283;28;20382;-70
2023/05/08 05:47:26;;;;;;;0.40;0.40;;;;;;;20.04;54.41;102205.44;5030397;28;20037;-70
2023/05/08 05:49:51;;;;;;;0.40;0.40;;;;;;;20.07;54.20;102210.38;5035177;28;20358;-68
2023/05/08 05:52:17;;;;;;;0.30;0.30;;;;;;;20.64;52.96;102201.72;5051085;28;20017;-68
2023/05/08 05:54:42;;;;;;;0.30;0.30;;;;;;;20.51;53.48;102213.06;5051473;28;20102;-69
2023/05/08 05:57:08;;;;;;;0.30;0.30;;;;;;;20.64;53.09;102209.91;5051697;28;20115;-69
2023/05/08 05:59:33;;;;;;;0.30;0.30;;;;;;;20.83;52.81;102213.94;5051280;28;20029;-68
2023/05/08 06:01:58;;;;;;;0.30;0.30;;;;;;;20.50;53.45;102222.38;5049409;28;20038;-70
2023/05/08 06:04:24;;;;;;;0.40;0.40;;;;;;;20.80;52.96;102219.91;5051438;28;20067;-70
2023/05/08 06:06:49;;;;;;;0.35;0.35;;;;;;;20.73;52.72;102227.50;5051128;28;20067;-69
2023/05/08 06:09:15;;;;;;;0.30;0.30;;;;;;;20.80;52.50;102218.00;5051421;28;20607;-69
2023/05/08 06:11:41;;;;;;;22.77;13.15;;;;;;;20.27;54.11;102218.00;5052063;28;20083;-69
2023/05/08 06:14:06;;;;;;;0.45;0.45;;;;;;;20.79;53.31;102219.09;5051813;28;20095;-68
2023/05/08 06:16:32;;;;;;;0.50;0.50;;;;;;;20.85;53.50;102214.50;5051233;28;20031;-69
2023/05/08 06:18:57;;;;;;;0.52;0.52;;;;;;;21.04;52.83;102221.25;5034322;28;20021;-69
2023/05/08 06:21:22;;;;;;;0.40;0.40;;;;;;;21.20;52.21;102225.75;5051571;28;20104;-71
2023/05/08 06:23:48;;;;;;;0.40;0.40;;;;;;;21.44;52.13;102220.72;5051719;28;20045;-68
2023/05/08 06:26:13;;;;;;;0.47;0.47;;;;;;;21.51;51.93;102213.09;5051344;28;20029;-69
2023/05/08 06:28:39;;;;;;;0.57;0.57;;;;;;;21.65;51.31;102215.13;5049070;28;20452;-69
2023/05/08 06:31:04;;;;;;;0.50;0.50;;;;;;;21.30;52.26;102225.84;5032546;28;20017;-68
2023/05/08 06:33:30;;;;;;;0.40;0.40;;;;;;;21.47;51.57;102214.72;5013641;28;20034;-70
2023/05/08 06:35:55;;;;;;;0.65;0.65;;;;;;;21.93;51.08;102219.38;5043942;28;20025;-68
2023/05/08 06:38:21;;;;;;;0.60;0.60;;;;;;;22.03;50.67;102221.34;5050678;28;20508;-68
2023/05/08 06:40:48;;;;;;;0.60;0.60;;;;;;;21.71;51.38;102222.25;5032345;28;20044;-69
2023/05/08 06:43:14;;;;;;;0.60;0.60;;;;;;;21.94;50.44;102223.75;5051576;28;20461;-68
2023/05/08 06:45:39;;;;;;;0.60;0.60;;;;;;;21.94;50.78;102222.94;5050632;28;20029;-69
2023/05/08 06:48:05;;;;;;;0.60;0.60;;;;;;;21.96;51.32;102223.47;5047678;28;20037;-69
2023/05/08 06:50:30;;;;;;;0.30;0.30;;;;;;;21.68;51.19;102220.03;5041756;28;20045;-68
2023/05/08 06:52:56;;;;;;;0.43;0.43;;;;;;;21.66;51.46;102226.88;5030944;28;20095;-69
2023/05/08 06:55:22;;;;;;;0.40;0.40;;;;;;;21.80;51.58;102223.41;5031592;28;20033;-68
2023/05/08 06:57:47;;;;;;;0.50;0.50;;;;;;;22.16;50.79;102218.09;5050732;28;20077;-69
2023/05/08 07:00:13;;;;;;;0.63;0.63;;;;;;;21.99;50.66;102226.53;5050698;28;20087;-69
2023/05/08 07:02:38;;;;;;;0.40;0.40;;;;;;;21.95;51.97;102217.22;5058755;28;20055;-69
2023/05/08 07:05:04;;;;;;;0.68;0.68;;;;;;;21.98;51.76;102215.81;5070323;28;20029;-70
2023/05/08 07:07:29;;;;;;;0.55;0.55;;;;;;;22.40;50.60;102213.78;5064289;28;20086;-69
2023/05/08 07:09:55;;;;;;;0.40;0.40;;;;;;;21.70;52.35;102219.75;5051150;28;20079;-71
2023/05/08 07:12:20;;;;;;;0.30;0.30;;;;;;;22.03;51.36;102213.97;5036104;28;20041;-70
2023/05/08 07:14:46;;;;;;;0.60;0.60;;;;;;;21.98;52.29;102215.81;5018951;28;20046;-68
2023/05/08 07:17:11;;;;;;;0.30;0.30;;;;;;;21.84;52.80;102205.38;5010553;28;20033;-71
2023/05/08 07:19:37;;;;;;;2.92;2.75;;;;;;;22.61;50.77;102205.38;5014215;28;20022;-70
2023/05/08 07:22:03;;;;;;;0.25;0.25;;;;;;;22.38;51.80;102199.53;5032989;28;20182;-69
2023/05/08 07:24:28;;;;;;;0.20;0.20;;;;;;;21.82;53.61;102204.00;5050491;28;20554;-69
2023/05/08 07:26:54;;;;;;;0.25;0.25;;;;;;;22.36;51.70;102201.72;5050344;28;20048;-69
2023/05/08 07:29:19;;;;;;;0.40;0.40;;;;;;;22.77;51.18;102206.19;5057957;28;20385;-69
2023/05/08 07:31:47;;;;;;;0.20;0.20;;;;;;;23.32;50.72;102216.34;5070758;28;20044;-68
2023/05/08 07:34:12;;;;;;;0.30;0.30;;;;;;;23.85;48.78;102204.69;5071019;28;20027;-68
2023/05/08 07:36:39;;;;;;;0.20;0.20;;;;;;;23.88;48.04;102206.84;5070171;28;20105;-70
2023/05/08 07:39:04;;;;;;;0.20;0.20;;;;;;;23.96;47.69;102214.53;5048912;28;20026;-70
2023/05/08 07:41:29;;;;;;;0.20;0.20;;;;;;;23.89;48.39;102213.19;5049947;28;20076;-69
2023/05/08 07:43:55;;;;;;;0.20;0.20;;;;;;;23.14;49.25;102209.50;5050009;28;20036;-70
2023/05/08 07:46:21;;;;;;;0.20;0.20;;;;;;;23.69;48.47;102210.50;5050877;28;20029;-69
2023/05/08 07:48:46;;;;;;;0.20;0.20;;;;;;;23.44;49.20;102208.66;5030669;28;20048;-69
2023/05/08 07:51:13;;;;;;;0.10;0.10;;;;;;;23.67;48.34;102216.28;5060161;28;20401;-70
2023/05/08 07:53:38;;;;;;;0.20;0.20;;;;;;;24.10;47.70;102210.09;5070509;28;20036;-70
2023/05/08 07:56:04;;;;;;;0.22;0.22;;;;;;;23.56;49.99;102209.19;5070354;28;20039;-69
2023/05/08 07:58:29;;;;;;;0.30;0.30;;;;;;;23.69;50.00;102202.25;5070421;28;20419;-71
2023/05/08 08:00:55;;;;;;;0.30;0.30;;;;;;;23.92;48.84;102210.69;5070845;28;20036;-69
2023/05/08 08:03:20;;;;;;;0.35;0.35;;;;;;;24.34;47.47;102210.25;5070149;28;20033;-70
2023/05/08 08:05:46;;;;;;;0.30;0.30;;;;;;;24.46;48.36;102221.72;5070260;28;20045;-70
2023/05/08 08:08:11;;;;;;;0.10;0.10;;;;;;;25.04;47.22;102212.50;5058246;28;20033;-69
2023/05/08 08:10:37;;;;;;;0.10;0.10;;;;;;;24.77;47.50;102219.59;5050092;28;20478;-69
2023/05/08 08:13:02;;;;;;;0.13;0.13;;;;;;;25.08;47.88;102218.28;5050424;28;20021;-69
2023/05/08 08:15:28;;;;;;;0.20;0.20;;;;;;;25.81;46.16;102211.47;5032080;28;20029;-69
2023/05/08 08:17:53;;;;;;;0.30;0.30;;;;;;;25.61;45.78;102216.41;5053618;28;20029;-70
2023/05/08 08:20:19;;;;;;;0.10;0.10;;;;;;;25.77;45.85;102213.16;5053769;28;20057;-68
2023/05/08 08:22:44;;;;;;;0.20;0.20;;;;;;;26.07;44.59;102212.81;5035646;28;20389;-68
2023/05/08 08:25:11;;;;;;;0.13;0.13;;;;;;;25.54;44.79;102213.97;5054308;28;20110;-69
2023/05/08 08:27:37;;;;;;;0.10;0.10;;;;;;;25.75;45.20;102212.63;5053541;28;20489;-68
2023/05/08 08:30:03;;;;;;;0.10;0.10;;;;;;;25.73;45.94;102212.09;5066597;28;20032;-68
2023/05/08 08:32:28;;;;;;;0.10;0.10;;;;;;;26.42;44.36;102205.16;5073647;28;20048;-69
2023/05/08 08:34:54;;;;;;;0.20;0.20;;;;;;;26.19;45.58;102209.63;5076999;28;20519;-69
2023/05/08 08:37:19;;;;;;;0.15;0.15;;;;;;;26.66;45.07;102203.13;5069139;28;20049;-70
2023/05/08 08:39:45;;;;;;;0.10;0.10;;;;;;;26.43;44.79;102199.38;5052883;28;20045;-69
2023/05/08 08:42:11;;;;;;;19.05;17.60;;;;;;;26.56;45.17;102193.09;5053307;28;20037;-70
2023/05/08 08:44:36;;;;;;;0.00;0.00;;;;;;;26.92;44.93;102193.38;5066853;28;20036;-69
2023/05/08 08:47:04;;;;;;;0.00;0.00;;;;;;;26.43;46.81;102190.25;5055177;28;20432;-68
2023/05/08 08:49:33;;;;;;;0.00;0.00;;;;;;;26.42;45.76;102181.16;5073477;28;20474;-69
2023/05/08 08:52:02;;;;;;;0.00;0.00;;;;;;;26.52;45.87;102182.94;5073696;28;20135;-69
2023/05/08 08:54:32;;;;;;;0.00;0.00;;;;;;;26.64;45.55;102169.53;5073281;28;20043;-69
2023/05/08 08:57:00;;;;;;;0.00;0.00;;;;;;;26.69;45.87;102166.69;5065259;28;20124;-69
2023/05/08 08:59:27;;;;;;;0.00;0.00;;;;;;;26.40;46.23;102172.38;5063381;28;20120;-69
2023/05/08 09:01:57;;;;;;;0.00;0.00;;;;;;;26.72;45.99;102164.19;5050728;28;20090;-69
2023/05/08 09:04:26;;;;;;;0.00;0.00;;;;;;;26.81;46.28;102161.56;5039291;28;20076;-65
2023/05/08 09:06:52;;;;;;;0.00;0.00;;;;;;;26.72;46.08;102163.34;5042295;28;20017;-69
2023/05/08 09:09:17;;;;;;;0.00;0.00;;;;;;;27.05;46.28;102166.91;5040872;28;20029;-70
2023/05/08 09:11:45;;;;;;;0.00;0.00;;;;;;;26.79;46.06;102170.13;5045392;28;20170;-69
2023/05/08 09:14:10;;;;;;;0.00;0.00;;;;;;;27.05;44.15;102169.69;5042297;28;20040;-70
2023/05/08 09:16:36;;;;;;;0.00;0.00;;;;;;;27.08;44.32;102177.38;5049135;28;20063;-70
2023/05/08 09:19:02;;;;;;;0.00;0.00;;;;;;;26.50;45.88;102177.75;5057791;28;20086;-70
2023/05/08 09:21:27;;;;;;;0.00;0.00;;;;;;;26.72;46.69;102174.38;5063835;28;20028;-71
2023/05/08 09:23:58;;;;;;;0.00;0.00;;;;;;;27.26;44.74;102174.53;5062403;28;20497;-70
2023/05/08 09:26:28;;;;;;;0.00;0.00;;;;;;;27.62;44.81;102169.16;5063352;28;20112;-68
2023/05/08 09:29:18;;;;;;;0.03;0.00;;;;;;;26.71;46.91;102170.81;5059155;28;20059;-70
2023/05/08 09:31:48;;;;;;;0.00;0.00;;;;;;;27.29;45.46;102167.56;4959965;28;20043;-70
2023/05/08 09:34:27;;;;;;;0.00;0.00;;;;;;;27.73;44.91;102165.06;4951739;29;20499;-69
2023/05/08 09:37:11;;;;;;;0.00;0.00;;;;;;;27.13;45.23;102163.47;4950995;29;20055;-69
2023/05/08 09:39:42;;;;;;;0.00;0.00;;;;;;;27.44;44.53;102165.38;4949883;29;20158;-70
2023/05/08 09:42:07;;;;;;;0.05;0.05;;;;;;;27.92;43.60;102159.41;4948899;29;20032;-69
2023/05/08 09:44:42;;;;;;;0.00;0.00;;;;;;;27.97;43.58;102162.91;4949404;29;20137;-70
2023/05/08 09:47:13;;;;;;;0.00;0.00;;;;;;;26.93;45.38;102165.47;4947593;29;20035;-70
2023/05/08 09:49:39;;;;;;;;;;;;;;;27.83;43.21;102164.03;4952342;28;20035;-70
2023/05/08 09:52:06;;;;;;;0.00;0.00;;;;;;;27.74;43.75;102166.69;4990119;28;19996;-69
2023/05/08 09:54:31;;;;;;;0.00;0.00;;;;;;;27.27;43.54;102159.59;4989982;28;20034;-69
2023/05/08 09:56:57;;;;;;;0.00;0.00;;;;;;;27.72;43.26;102160.66;4973387;28;20113;-70
2023/05/08 09:59:27;;;;;;;0.00;0.00;;;;;;;27.62;43.75;102163.63;4989067;28;20034;-70
2023/05/08 10:01:52;;;;;;;0.00;0.00;;;;;;;28.12;44.67;102164.53;4990079;28;20030;-69
2023/05/08 10:04:35;;;;;;;0.10;0.00;;;;;;;28.77;41.53;102163.00;4973755;28;20046;-71
2023/05/08 10:07:02;;;;;;;0.00;0.00;;;;;;;28.50;41.88;102157.56;4982053;28;20062;-70
2023/05/08 10:09:27;;;;;;;0.00;0.00;;;;;;;27.80;44.25;102157.19;5024764;28;20114;-70
2023/05/08 10:11:54;;;;;;;0.00;0.00;;;;;;;28.16;42.83;102158.06;5050590;28;20477;-69
2023/05/08 10:14:23;;;;;;;0.00;0.00;;;;;;;28.05;44.78;102158.63;5043776;28;20141;-72
2023/05/08 10:16:51;;;;;;;0.00;0.00;;;;;;;28.13;43.32;102161.44;5041741;28;20040;-70
2023/05/08 10:19:19;;;;;;;0.00;0.00;;;;;;;28.11;42.32;102155.41;5049005;28;20013;-69
2023/05/08 10:21:47;;;;;;;0.00;0.00;;;;;;;27.80;44.17;102165.47;5049422;28;20045;-70
2023/05/08 10:24:17;;;;;;;0.00;0.00;;;;;;;28.25;42.95;102175.56;5030899;28;20116;-71
2023/05/08 10:26:47;;;;;;;;;;;;;;;29.07;42.13;102172.47;5053398;28;20045;-72
2023/05/08 10:29:20;;;;;;;0.00;0.00;;;;;;;28.24;42.82;102173.94;5048263;28;19916;-70
2023/05/08 10:31:48;;;;;;;0.00;0.00;;;;;;;28.18;42.50;102179.88;5051797;28;20017;-69
2023/05/08 10:34:18;;;;;;;0.00;0.00;;;;;;;28.10;43.26;102175.91;5079974;28;20020;-70
2023/05/08 10:36:46;;;;;;;0.00;0.00;;;;;;;28.04;42.28;102166.09;5075804;28;20084;-70
2023/05/08 10:39:14;;;;;;;0.00;0.00;;;;;;;27.78;44.25;102164.97;5056190;28;20029;-71
2023/05/08 10:41:40;;;;;;;0.00;0.00;;;;;;;27.95;44.73;102159.63;5060798;28;20226;-69
2023/05/08 10:44:07;;;;;;;0.00;0.00;;;;;;;27.64;46.29;102161.38;5064446;28;20028;-69
2023/05/08 10:46:43;;;;;;;0.00;0.00;;;;;;;28.20;43.65;102161.03;5065643;28;20031;-72
2023/05/08 10:49:35;;;;;;;0.00;0.00;;;;;;;27.83;44.20;102151.06;5065243;28;20048;-71
2023/05/08 10:52:11;;;;;;;0.00;0.00;;;;;;;27.82;43.44;102152.16;5069845;28;20040;-71
2023/05/08 10:55:05;;;;;;;0.00;0.00;;;;;;;27.95;44.06;102151.34;5063443;28;20064;-70
2023/05/08 10:57:30;;;;;;;0.00;0.00;;;;;;;28.66;43.70;102152.50;5067423;28;20062;-68
2023/05/08 10:59:56;;;;;;;0.00;0.00;;;;;;;28.93;43.28;102150.41;5050469;28;20045;-71
2023/05/08 11:02:30;;;;;;;0.00;0.00;;;;;;;29.23;42.41;102146.00;5070232;28;20109;-69
2023/05/08 11:05:14;;;;;;;0.00;0.00;;;;;;;29.85;41.33;102152.28;5073152;28;20239;-69
2023/05/08 11:07:55;;;;;;;0.00;0.00;;;;;;;30.75;40.08;102152.16;5065315;28;20025;-69
2023/05/08 11:10:21;;;;;;;0.00;0.00;;;;;;;30.08;39.38;102148.22;5063805;28;20032;-69
2023/05/08 11:12:49;;;;;;;0.00;0.00;;;;;;;30.89;38.73;102147.28;5069531;28;20024;-70
2023/05/08 11:15:14;;;;;;;0.00;0.00;;;;;;;30.76;39.16;102141.88;5069461;28;20029;-70
2023/05/08 11:17:45;;;;;;;0.00;0.00;;;;;;;30.77;41.04;102141.56;5069529;28;20123;-70
2023/05/08 11:20:10;;;;;;;0.55;0.43;;;;;;;30.38;39.95;102135.38;5065300;28;20040;-70
2023/05/08 11:22:37;;;;;;;0.00;0.00;;;;;;;30.78;39.10;102134.84;5078869;28;20050;-70
2023/05/08 11:25:08;;;;;;;0.00;0.00;;;;;;;30.40;40.76;102136.69;5082838;28;20489;-70
2023/05/08 11:28:05;;;;;;;0.00;0.00;;;;;;;30.11;40.83;102139.28;5051444;28;20564;-70
2023/05/08 11:30:37;;;;;;;0.00;0.00;;;;;;;29.43;41.66;102126.06;5069803;28;20086;-71
2023/05/08 11:33:05;;;;;;;0.00;0.00;;;;;;;29.91;41.14;102134.34;5070167;28;20037;-70
2023/05/08 11:36:14;;;;;;;0.00;0.00;;;;;;;29.52;42.66;102128.84;5051130;28;20086;-69